sensor_id;sensor_type;location;lat;lon;timestamp;P1;durP1;ratioP1;P2;durP2;ratioP2
11711;SDS011;5912;51.034;6.984;2023-09-18T00:02:17;4.97;;;4.25;;
11711;SDS011;5912;51.034;6.984;2023-09-18T00:04:43;7.63;;;4.85;;
11711;SDS011;5912;51.034;6.984;2023-09-18T00:07:08;5.57;;;5.07;;
11711;SDS011;5912;51.034;6.984;2023-09-18T00:09:35;7.07;;;4.82;;
11711;SDS011;5912;51.034;6.984;2023-09-18T00:12:01;5.90;;;4.90;;
11711;SDS011;5912;51.034;6.984;2023-09-18T00:14:26;8.05;;;4.75;;
11711;SDS011;5912;51.034;6.984;2023-09-18T00:16:52;6.07;;;4.40;;
11711;SDS011;5912;51.034;6.984;2023-09-18T00:19:17;5.68;;;4.65;;
11711;SDS011;5912;51.034;6.984;2023-09-18T00:21:43;4.82;;;4.38;;
11711;SDS011;5912;51.034;6.984;2023-09-18T00:24:08;6.40;;;4.75;;
11711;SDS011;5912;51.034;6.984;2023-09-18T00:26:34;7.22;;;5.43;;
11711;SDS011;5912;51.034;6.984;2023-09-18T00:28:59;8.18;;;4.82;;
11711;SDS011;5912;51.034;6.984;2023-09-18T00:31:24;7.82;;;5.38;;
11711;SDS011;5912;51.034;6.984;2023-09-18T00:33:49;6.45;;;4.82;;
11711;SDS011;5912;51.034;6.984;2023-09-18T00:36:15;5.50;;;4.65;;
11711;SDS011;5912;51.034;6.984;2023-09-18T00:38:40;8.30;;;4.97;;
11711;SDS011;5912;51.034;6.984;2023-09-18T00:41:05;8.18;;;4.90;;
11711;SDS011;5912;51.034;6.984;2023-09-18T00:43:31;6.30;;;5.07;;
11711;SDS011;5912;51.034;6.984;2023-09-18T00:45:56;6.05;;;4.80;;
11711;SDS011;5912;51.034;6.984;2023-09-18T00:48:22;7.40;;;4.60;;
11711;SDS011;5912;51.034;6.984;2023-09-18T00:50:47;6.72;;;4.90;;
11711;SDS011;5912;51.034;6.984;2023-09-18T00:53:14;8.05;;;4.82;;
11711;SDS011;5912;51.034;6.984;2023-09-18T00:55:42;8.65;;;4.82;;
11711;SDS011;5912;51.034;6.984;2023-09-18T00:58:07;6.40;;;4.55;;
11711;SDS011;5912;51.034;6.984;2023-09-18T01:00:33;9.52;;;4.32;;
11711;SDS011;5912;51.034;6.984;2023-09-18T01:03:00;11.45;;;5.50;;
11711;SDS011;5912;51.034;6.984;2023-09-18T01:05:26;7.25;;;4.97;;
11711;SDS011;5912;51.034;6.984;2023-09-18T01:07:52;9.82;;;5.10;;
11711;SDS011;5912;51.034;6.984;2023-09-18T01:10:17;9.85;;;4.75;;
11711;SDS011;5912;51.034;6.984;2023-09-18T01:12:52;5.50;;;4.55;;
11711;SDS011;5912;51.034;6.984;2023-09-18T01:15:22;9.38;;;4.55;;
11711;SDS011;5912;51.034;6.984;2023-09-18T01:17:55;8.02;;;4.55;;
11711;SDS011;5912;51.034;6.984;2023-09-18T01:20:20;6.70;;;4.60;;
11711;SDS011;5912;51.034;6.984;2023-09-18T01:22:46;5.97;;;4.47;;
11711;SDS011;5912;51.034;6.984;2023-09-18T01:25:11;8.25;;;4.50;;
11711;SDS011;5912;51.034;6.984;2023-09-18T01:27:36;6.57;;;4.18;;
11711;SDS011;5912;51.034;6.984;2023-09-18T01:30:02;7.50;;;4.72;;
11711;SDS011;5912;51.034;6.984;2023-09-18T01:32:29;7.40;;;4.45;;
11711;SDS011;5912;51.034;6.984;2023-09-18T01:34:56;5.25;;;4.32;;
11711;SDS011;5912;51.034;6.984;2023-09-18T01:37:28;6.72;;;4.60;;
11711;SDS011;5912;51.034;6.984;2023-09-18T01:39:56;6.85;;;4.53;;
11711;SDS011;5912;51.034;6.984;2023-09-18T01:42:24;7.63;;;4.28;;
11711;SDS011;5912;51.034;6.984;2023-09-18T01:44:51;13.40;;;5.55;;
11711;SDS011;5912;51.034;6.984;2023-09-18T01:47:18;8.43;;;4.60;;
11711;SDS011;5912;51.034;6.984;2023-09-18T01:49:45;10.00;;;4.85;;
11711;SDS011;5912;51.034;6.984;2023-09-18T01:52:11;7.75;;;4.20;;
11711;SDS011;5912;51.034;6.984;2023-09-18T01:54:37;7.05;;;4.43;;
11711;SDS011;5912;51.034;6.984;2023-09-18T01:57:02;9.10;;;4.30;;
11711;SDS011;5912;51.034;6.984;2023-09-18T01:59:28;5.40;;;3.85;;
11711;SDS011;5912;51.034;6.984;2023-09-18T02:01:54;7.38;;;3.90;;
11711;SDS011;5912;51.034;6.984;2023-09-18T02:04:19;7.82;;;4.55;;
11711;SDS011;5912;51.034;6.984;2023-09-18T02:06:46;8.95;;;4.28;;
11711;SDS011;5912;51.034;6.984;2023-09-18T02:09:13;5.30;;;3.65;;
11711;SDS011;5912;51.034;6.984;2023-09-18T02:11:39;5.18;;;3.85;;
11711;SDS011;5912;51.034;6.984;2023-09-18T02:14:06;6.45;;;3.38;;
11711;SDS011;5912;51.034;6.984;2023-09-18T02:16:36;5.35;;;4.13;;
11711;SDS011;5912;51.034;6.984;2023-09-18T02:19:03;5.93;;;3.50;;
11711;SDS011;5912;51.034;6.984;2023-09-18T02:21:29;6.80;;;3.65;;
11711;SDS011;5912;51.034;6.984;2023-09-18T02:23:55;7.43;;;3.40;;
11711;SDS011;5912;51.034;6.984;2023-09-18T02:26:21;8.85;;;4.35;;
11711;SDS011;5912;51.034;6.984;2023-09-18T02:28:47;7.03;;;3.72;;
11711;SDS011;5912;51.034;6.984;2023-09-18T02:31:13;6.18;;;3.40;;
11711;SDS011;5912;51.034;6.984;2023-09-18T02:33:39;10.25;;;4.00;;
11711;SDS011;5912;51.034;6.984;2023-09-18T02:36:14;4.50;;;3.40;;
11711;SDS011;5912;51.034;6.984;2023-09-18T02:38:39;10.48;;;3.90;;
11711;SDS011;5912;51.034;6.984;2023-09-18T02:41:05;5.82;;;3.15;;
11711;SDS011;5912;51.034;6.984;2023-09-18T02:43:30;4.35;;;3.78;;
11711;SDS011;5912;51.034;6.984;2023-09-18T02:45:55;9.73;;;3.97;;
11711;SDS011;5912;51.034;6.984;2023-09-18T02:48:21;6.65;;;3.97;;
11711;SDS011;5912;51.034;6.984;2023-09-18T02:50:46;7.32;;;4.10;;
11711;SDS011;5912;51.034;6.984;2023-09-18T02:53:16;6.18;;;3.60;;
11711;SDS011;5912;51.034;6.984;2023-09-18T02:55:43;4.88;;;3.53;;
11711;SDS011;5912;51.034;6.984;2023-09-18T02:58:08;5.75;;;3.58;;
11711;SDS011;5912;51.034;6.984;2023-09-18T03:00:35;5.03;;;3.58;;
11711;SDS011;5912;51.034;6.984;2023-09-18T03:03:05;6.88;;;3.53;;
11711;SDS011;5912;51.034;6.984;2023-09-18T03:05:31;6.95;;;3.78;;
11711;SDS011;5912;51.034;6.984;2023-09-18T03:07:56;5.32;;;3.80;;
11711;SDS011;5912;51.034;6.984;2023-09-18T03:10:21;5.68;;;3.92;;
11711;SDS011;5912;51.034;6.984;2023-09-18T03:12:47;8.27;;;4.15;;
11711;SDS011;5912;51.034;6.984;2023-09-18T03:15:13;4.88;;;3.85;;
11711;SDS011;5912;51.034;6.984;2023-09-18T03:17:38;5.93;;;3.83;;
11711;SDS011;5912;51.034;6.984;2023-09-18T03:20:06;6.43;;;3.90;;
11711;SDS011;5912;51.034;6.984;2023-09-18T03:22:32;5.68;;;4.05;;
11711;SDS011;5912;51.034;6.984;2023-09-18T03:24:57;6.15;;;3.90;;
11711;SDS011;5912;51.034;6.984;2023-09-18T03:27:22;7.30;;;4.78;;
11711;SDS011;5912;51.034;6.984;2023-09-18T03:29:53;5.10;;;3.80;;
11711;SDS011;5912;51.034;6.984;2023-09-18T03:32:19;3.92;;;3.40;;
11711;SDS011;5912;51.034;6.984;2023-09-18T03:34:44;8.68;;;3.92;;
11711;SDS011;5912;51.034;6.984;2023-09-18T03:37:09;6.15;;;3.88;;
11711;SDS011;5912;51.034;6.984;2023-09-18T03:39:35;6.18;;;3.75;;
11711;SDS011;5912;51.034;6.984;2023-09-18T03:42:00;7.80;;;4.43;;
11711;SDS011;5912;51.034;6.984;2023-09-18T03:44:25;7.70;;;3.75;;
11711;SDS011;5912;51.034;6.984;2023-09-18T03:46:50;9.77;;;4.57;;
11711;SDS011;5912;51.034;6.984;2023-09-18T03:49:16;5.35;;;3.78;;
11711;SDS011;5912;51.034;6.984;2023-09-18T03:51:41;4.90;;;4.00;;
11711;SDS011;5912;51.034;6.984;2023-09-18T03:54:06;8.10;;;4.03;;
11711;SDS011;5912;51.034;6.984;2023-09-18T03:56:31;9.48;;;4.10;;
11711;SDS011;5912;51.034;6.984;2023-09-18T03:58:57;8.15;;;3.90;;
11711;SDS011;5912;51.034;6.984;2023-09-18T04:01:25;8.35;;;4.90;;
11711;SDS011;5912;51.034;6.984;2023-09-18T04:03:51;11.45;;;4.85;;
11711;SDS011;5912;51.034;6.984;2023-09-18T04:06:16;6.85;;;4.40;;
11711;SDS011;5912;51.034;6.984;2023-09-18T04:08:45;8.10;;;4.60;;
11711;SDS011;5912;51.034;6.984;2023-09-18T04:11:10;6.65;;;3.97;;
11711;SDS011;5912;51.034;6.984;2023-09-18T04:13:36;5.18;;;3.65;;
11711;SDS011;5912;51.034;6.984;2023-09-18T04:16:02;7.05;;;4.40;;
11711;SDS011;5912;51.034;6.984;2023-09-18T04:18:29;6.22;;;3.95;;
11711;SDS011;5912;51.034;6.984;2023-09-18T04:20:54;9.00;;;4.05;;
11711;SDS011;5912;51.034;6.984;2023-09-18T04:23:20;6.47;;;4.10;;
11711;SDS011;5912;51.034;6.984;2023-09-18T04:25:50;10.18;;;4.50;;
11711;SDS011;5912;51.034;6.984;2023-09-18T04:28:17;7.32;;;4.45;;
11711;SDS011;5912;51.034;6.984;2023-09-18T04:30:45;8.93;;;4.63;;
11711;SDS011;5912;51.034;6.984;2023-09-18T04:33:12;10.23;;;4.55;;
11711;SDS011;5912;51.034;6.984;2023-09-18T04:38:45;8.60;;;4.32;;
11711;SDS011;5912;51.034;6.984;2023-09-18T04:41:10;8.20;;;3.90;;
11711;SDS011;5912;51.034;6.984;2023-09-18T04:43:36;7.78;;;4.20;;
11711;SDS011;5912;51.034;6.984;2023-09-18T04:46:04;8.00;;;3.92;;
11711;SDS011;5912;51.034;6.984;2023-09-18T04:48:30;10.07;;;4.25;;
11711;SDS011;5912;51.034;6.984;2023-09-18T04:50:56;7.63;;;3.92;;
11711;SDS011;5912;51.034;6.984;2023-09-18T04:53:22;9.63;;;4.20;;
11711;SDS011;5912;51.034;6.984;2023-09-18T04:55:47;5.72;;;3.95;;
11711;SDS011;5912;51.034;6.984;2023-09-18T04:58:14;7.35;;;3.72;;
11711;SDS011;5912;51.034;6.984;2023-09-18T05:00:40;6.60;;;4.25;;
11711;SDS011;5912;51.034;6.984;2023-09-18T05:03:06;5.57;;;3.88;;
11711;SDS011;5912;51.034;6.984;2023-09-18T05:05:33;8.52;;;3.83;;
11711;SDS011;5912;51.034;6.984;2023-09-18T05:08:01;9.55;;;3.83;;
11711;SDS011;5912;51.034;6.984;2023-09-18T05:10:32;7.53;;;4.13;;
11711;SDS011;5912;51.034;6.984;2023-09-18T05:13:01;11.40;;;4.40;;
11711;SDS011;5912;51.034;6.984;2023-09-18T05:15:28;4.43;;;3.17;;
11711;SDS011;5912;51.034;6.984;2023-09-18T05:17:56;9.40;;;3.88;;
11711;SDS011;5912;51.034;6.984;2023-09-18T05:20:23;6.70;;;3.85;;
11711;SDS011;5912;51.034;6.984;2023-09-18T05:22:53;8.98;;;3.95;;
11711;SDS011;5912;51.034;6.984;2023-09-18T05:25:20;6.72;;;3.78;;
11711;SDS011;5912;51.034;6.984;2023-09-18T05:27:50;8.15;;;3.70;;
11711;SDS011;5912;51.034;6.984;2023-09-18T05:30:21;9.15;;;3.47;;
11711;SDS011;5912;51.034;6.984;2023-09-18T05:32:50;8.65;;;3.50;;
11711;SDS011;5912;51.034;6.984;2023-09-18T05:35:15;10.70;;;3.92;;
11711;SDS011;5912;51.034;6.984;2023-09-18T05:37:41;8.55;;;3.90;;
11711;SDS011;5912;51.034;6.984;2023-09-18T05:40:07;12.27;;;4.88;;
11711;SDS011;5912;51.034;6.984;2023-09-18T05:42:37;8.32;;;3.30;;
11711;SDS011;5912;51.034;6.984;2023-09-18T05:45:03;6.35;;;3.30;;
11711;SDS011;5912;51.034;6.984;2023-09-18T05:47:30;11.05;;;4.25;;
11711;SDS011;5912;51.034;6.984;2023-09-18T05:49:57;13.13;;;3.90;;
11711;SDS011;5912;51.034;6.984;2023-09-18T05:52:22;10.10;;;3.53;;
11711;SDS011;5912;51.034;6.984;2023-09-18T05:54:48;10.57;;;3.97;;
11711;SDS011;5912;51.034;6.984;2023-09-18T05:57:14;9.07;;;3.42;;
11711;SDS011;5912;51.034;6.984;2023-09-18T05:59:39;6.15;;;3.55;;
11711;SDS011;5912;51.034;6.984;2023-09-18T06:02:05;8.95;;;3.35;;
11711;SDS011;5912;51.034;6.984;2023-09-18T06:04:30;10.73;;;3.53;;
11711;SDS011;5912;51.034;6.984;2023-09-18T06:06:56;11.27;;;3.95;;
11711;SDS011;5912;51.034;6.984;2023-09-18T06:09:21;7.65;;;3.60;;
11711;SDS011;5912;51.034;6.984;2023-09-18T06:11:47;10.00;;;3.60;;
11711;SDS011;5912;51.034;6.984;2023-09-18T06:14:13;7.03;;;4.25;;
11711;SDS011;5912;51.034;6.984;2023-09-18T06:16:39;7.82;;;3.55;;
11711;SDS011;5912;51.034;6.984;2023-09-18T06:19:04;11.40;;;3.55;;
11711;SDS011;5912;51.034;6.984;2023-09-18T06:21:29;9.15;;;3.17;;
11711;SDS011;5912;51.034;6.984;2023-09-18T06:23:54;5.72;;;3.00;;
11711;SDS011;5912;51.034;6.984;2023-09-18T06:26:20;7.10;;;2.90;;
11711;SDS011;5912;51.034;6.984;2023-09-18T06:28:46;6.32;;;4.18;;
11711;SDS011;5912;51.034;6.984;2023-09-18T06:31:12;8.32;;;3.90;;
11711;SDS011;5912;51.034;6.984;2023-09-18T06:33:37;6.63;;;3.80;;
11711;SDS011;5912;51.034;6.984;2023-09-18T06:36:02;6.75;;;3.08;;
11711;SDS011;5912;51.034;6.984;2023-09-18T06:38:28;8.80;;;2.80;;
11711;SDS011;5912;51.034;6.984;2023-09-18T06:40:53;5.40;;;2.78;;
11711;SDS011;5912;51.034;6.984;2023-09-18T06:43:20;5.07;;;2.35;;
11711;SDS011;5912;51.034;6.984;2023-09-18T06:45:45;6.63;;;2.58;;
11711;SDS011;5912;51.034;6.984;2023-09-18T06:48:11;5.35;;;2.95;;
11711;SDS011;5912;51.034;6.984;2023-09-18T06:50:36;8.57;;;2.83;;
11711;SDS011;5912;51.034;6.984;2023-09-18T06:53:01;5.22;;;2.55;;
11711;SDS011;5912;51.034;6.984;2023-09-18T06:55:27;5.80;;;2.40;;
11711;SDS011;5912;51.034;6.984;2023-09-18T06:57:52;4.13;;;2.10;;
11711;SDS011;5912;51.034;6.984;2023-09-18T07:00:18;3.58;;;2.15;;
11711;SDS011;5912;51.034;6.984;2023-09-18T07:02:45;7.63;;;2.53;;
11711;SDS011;5912;51.034;6.984;2023-09-18T07:05:11;8.55;;;2.22;;
11711;SDS011;5912;51.034;6.984;2023-09-18T07:07:37;5.70;;;2.03;;
11711;SDS011;5912;51.034;6.984;2023-09-18T07:10:02;9.25;;;2.15;;
11711;SDS011;5912;51.034;6.984;2023-09-18T07:12:28;6.63;;;2.50;;
11711;SDS011;5912;51.034;6.984;2023-09-18T07:14:53;5.13;;;1.90;;
11711;SDS011;5912;51.034;6.984;2023-09-18T07:17:18;5.95;;;2.55;;
11711;SDS011;5912;51.034;6.984;2023-09-18T07:19:44;6.55;;;1.88;;
11711;SDS011;5912;51.034;6.984;2023-09-18T07:22:09;5.53;;;2.10;;
11711;SDS011;5912;51.034;6.984;2023-09-18T07:24:34;5.35;;;1.60;;
11711;SDS011;5912;51.034;6.984;2023-09-18T07:26:59;6.53;;;2.35;;
11711;SDS011;5912;51.034;6.984;2023-09-18T07:29:25;6.32;;;1.77;;
11711;SDS011;5912;51.034;6.984;2023-09-18T07:32:02;7.38;;;2.55;;
11711;SDS011;5912;51.034;6.984;2023-09-18T07:34:28;2.80;;;1.63;;
11711;SDS011;5912;51.034;6.984;2023-09-18T07:36:53;5.40;;;2.00;;
11711;SDS011;5912;51.034;6.984;2023-09-18T07:39:20;4.38;;;1.83;;
11711;SDS011;5912;51.034;6.984;2023-09-18T07:41:46;7.65;;;1.90;;
11711;SDS011;5912;51.034;6.984;2023-09-18T07:44:12;7.70;;;2.15;;
11711;SDS011;5912;51.034;6.984;2023-09-18T07:46:44;3.20;;;1.98;;
11711;SDS011;5912;51.034;6.984;2023-09-18T07:49:10;4.95;;;2.10;;
11711;SDS011;5912;51.034;6.984;2023-09-18T07:51:35;5.53;;;2.15;;
11711;SDS011;5912;51.034;6.984;2023-09-18T07:54:00;7.32;;;1.90;;
11711;SDS011;5912;51.034;6.984;2023-09-18T07:56:25;5.15;;;1.95;;
11711;SDS011;5912;51.034;6.984;2023-09-18T07:58:52;4.28;;;2.22;;
11711;SDS011;5912;51.034;6.984;2023-09-18T08:01:17;7.55;;;1.55;;
11711;SDS011;5912;51.034;6.984;2023-09-18T08:03:43;3.70;;;1.63;;
11711;SDS011;5912;51.034;6.984;2023-09-18T08:06:08;2.38;;;1.35;;
11711;SDS011;5912;51.034;6.984;2023-09-18T08:08:33;4.70;;;1.30;;
11711;SDS011;5912;51.034;6.984;2023-09-18T08:11:00;3.17;;;1.20;;
11711;SDS011;5912;51.034;6.984;2023-09-18T08:13:31;4.25;;;1.30;;
11711;SDS011;5912;51.034;6.984;2023-09-18T08:15:57;3.03;;;1.30;;
11711;SDS011;5912;51.034;6.984;2023-09-18T08:18:22;1.98;;;1.27;;
11711;SDS011;5912;51.034;6.984;2023-09-18T08:20:51;5.30;;;1.30;;
11711;SDS011;5912;51.034;6.984;2023-09-18T08:23:16;4.30;;;1.33;;
11711;SDS011;5912;51.034;6.984;2023-09-18T08:25:42;4.80;;;1.55;;
11711;SDS011;5912;51.034;6.984;2023-09-18T08:28:07;3.67;;;1.20;;
11711;SDS011;5912;51.034;6.984;2023-09-18T08:30:33;2.78;;;1.20;;
11711;SDS011;5912;51.034;6.984;2023-09-18T08:32:58;5.13;;;1.23;;
11711;SDS011;5912;51.034;6.984;2023-09-18T08:35:24;2.45;;;1.30;;
11711;SDS011;5912;51.034;6.984;2023-09-18T08:37:54;2.95;;;1.10;;
11711;SDS011;5912;51.034;6.984;2023-09-18T08:40:19;2.70;;;1.20;;
11711;SDS011;5912;51.034;6.984;2023-09-18T08:42:47;4.63;;;1.35;;
11711;SDS011;5912;51.034;6.984;2023-09-18T08:45:23;3.20;;;1.50;;
11711;SDS011;5912;51.034;6.984;2023-09-18T08:47:56;5.30;;;1.30;;
11711;SDS011;5912;51.034;6.984;2023-09-18T08:50:22;2.53;;;1.23;;
11711;SDS011;5912;51.034;6.984;2023-09-18T08:52:48;3.00;;;1.60;;
11711;SDS011;5912;51.034;6.984;2023-09-18T08:55:15;2.53;;;1.50;;
11711;SDS011;5912;51.034;6.984;2023-09-18T08:57:41;3.10;;;1.17;;
11711;SDS011;5912;51.034;6.984;2023-09-18T09:00:08;1.83;;;1.10;;
11711;SDS011;5912;51.034;6.984;2023-09-18T09:02:36;4.18;;;1.30;;
11711;SDS011;5912;51.034;6.984;2023-09-18T09:05:02;2.90;;;1.23;;
11711;SDS011;5912;51.034;6.984;2023-09-18T09:07:28;4.72;;;1.38;;
11711;SDS011;5912;51.034;6.984;2023-09-18T09:09:56;2.63;;;1.40;;
11711;SDS011;5912;51.034;6.984;2023-09-18T09:15:19;3.60;;;1.10;;
11711;SDS011;5912;51.034;6.984;2023-09-18T09:17:45;1.65;;;0.80;;
11711;SDS011;5912;51.034;6.984;2023-09-18T09:20:12;2.63;;;1.48;;
11711;SDS011;5912;51.034;6.984;2023-09-18T09:22:38;3.70;;;1.23;;
11711;SDS011;5912;51.034;6.984;2023-09-18T09:25:18;3.95;;;1.30;;
11711;SDS011;5912;51.034;6.984;2023-09-18T09:27:46;2.67;;;1.15;;
11711;SDS011;5912;51.034;6.984;2023-09-18T09:30:18;2.15;;;1.20;;
11711;SDS011;5912;51.034;6.984;2023-09-18T09:32:47;3.42;;;1.55;;
11711;SDS011;5912;51.034;6.984;2023-09-18T09:35:18;6.70;;;1.20;;
11711;SDS011;5912;51.034;6.984;2023-09-18T09:37:48;4.03;;;1.35;;
11711;SDS011;5912;51.034;6.984;2023-09-18T09:40:16;3.45;;;1.20;;
11711;SDS011;5912;51.034;6.984;2023-09-18T09:42:43;2.00;;;1.10;;
11711;SDS011;5912;51.034;6.984;2023-09-18T09:45:13;4.70;;;1.58;;
11711;SDS011;5912;51.034;6.984;2023-09-18T09:47:41;4.00;;;1.92;;
11711;SDS011;5912;51.034;6.984;2023-09-18T09:50:15;4.93;;;1.80;;
11711;SDS011;5912;51.034;6.984;2023-09-18T09:52:44;2.90;;;1.23;;
11711;SDS011;5912;51.034;6.984;2023-09-18T09:57:57;5.30;;;1.58;;
11711;SDS011;5912;51.034;6.984;2023-09-18T10:00:37;4.43;;;1.52;;
11711;SDS011;5912;51.034;6.984;2023-09-18T10:03:09;3.65;;;1.33;;
11711;SDS011;5912;51.034;6.984;2023-09-18T10:05:37;4.18;;;1.45;;
11711;SDS011;5912;51.034;6.984;2023-09-18T10:08:04;1.65;;;1.27;;
11711;SDS011;5912;51.034;6.984;2023-09-18T10:10:33;4.72;;;1.63;;
11711;SDS011;5912;51.034;6.984;2023-09-18T10:13:08;2.90;;;1.60;;
11711;SDS011;5912;51.034;6.984;2023-09-18T10:15:35;3.95;;;1.10;;
11711;SDS011;5912;51.034;6.984;2023-09-18T10:18:04;2.80;;;1.20;;
11711;SDS011;5912;51.034;6.984;2023-09-18T10:20:33;2.13;;;1.20;;
11711;SDS011;5912;51.034;6.984;2023-09-18T10:23:07;3.15;;;1.23;;
11711;SDS011;5912;51.034;6.984;2023-09-18T10:25:45;2.83;;;1.10;;
11711;SDS011;5912;51.034;6.984;2023-09-18T10:28:13;1.75;;;0.80;;
11711;SDS011;5912;51.034;6.984;2023-09-18T10:30:40;3.45;;;1.10;;
11711;SDS011;5912;51.034;6.984;2023-09-18T10:33:07;2.13;;;0.95;;
11711;SDS011;5912;51.034;6.984;2023-09-18T10:35:33;3.15;;;1.10;;
11711;SDS011;5912;51.034;6.984;2023-09-18T10:38:00;5.38;;;1.27;;
11711;SDS011;5912;51.034;6.984;2023-09-18T10:40:27;5.60;;;1.13;;
11711;SDS011;5912;51.034;6.984;2023-09-18T10:42:54;4.90;;;1.27;;
11711;SDS011;5912;51.034;6.984;2023-09-18T10:45:23;2.00;;;1.23;;
11711;SDS011;5912;51.034;6.984;2023-09-18T10:47:49;2.55;;;1.00;;
11711;SDS011;5912;51.034;6.984;2023-09-18T10:50:25;2.67;;;0.90;;
11711;SDS011;5912;51.034;6.984;2023-09-18T10:52:51;4.57;;;1.23;;
11711;SDS011;5912;51.034;6.984;2023-09-18T10:55:17;2.25;;;1.00;;
11711;SDS011;5912;51.034;6.984;2023-09-18T10:57:52;5.40;;;1.35;;
11711;SDS011;5912;51.034;6.984;2023-09-18T11:00:22;2.35;;;1.00;;
11711;SDS011;5912;51.034;6.984;2023-09-18T11:02:53;1.58;;;0.70;;
11711;SDS011;5912;51.034;6.984;2023-09-18T11:05:29;3.85;;;0.90;;
11711;SDS011;5912;51.034;6.984;2023-09-18T11:11:06;3.35;;;1.60;;
11711;SDS011;5912;51.034;6.984;2023-09-18T11:13:43;5.38;;;1.10;;
11711;SDS011;5912;51.034;6.984;2023-09-18T11:18:39;1.83;;;0.85;;
11711;SDS011;5912;51.034;6.984;2023-09-18T11:21:08;2.45;;;0.68;;
11711;SDS011;5912;51.034;6.984;2023-09-18T11:23:35;3.67;;;0.88;;
11711;SDS011;5912;51.034;6.984;2023-09-18T11:26:08;2.53;;;0.88;;
11711;SDS011;5912;51.034;6.984;2023-09-18T11:28:36;4.18;;;1.08;;
11711;SDS011;5912;51.034;6.984;2023-09-18T11:31:03;1.73;;;1.00;;
11711;SDS011;5912;51.034;6.984;2023-09-18T11:36:14;2.88;;;0.95;;
11711;SDS011;5912;51.034;6.984;2023-09-18T11:38:56;2.55;;;1.00;;
11711;SDS011;5912;51.034;6.984;2023-09-18T11:41:27;1.70;;;0.80;;
11711;SDS011;5912;51.034;6.984;2023-09-18T11:44:40;1.73;;;0.98;;
11711;SDS011;5912;51.034;6.984;2023-09-18T11:46:45;3.80;;;0.85;;
11711;SDS011;5912;51.034;6.984;2023-09-18T11:49:12;2.83;;;0.90;;
11711;SDS011;5912;51.034;6.984;2023-09-18T11:51:38;4.53;;;1.00;;
11711;SDS011;5912;51.034;6.984;2023-09-18T11:54:05;2.78;;;1.02;;
11711;SDS011;5912;51.034;6.984;2023-09-18T11:56:32;2.10;;;0.88;;
11711;SDS011;5912;51.034;6.984;2023-09-18T11:58:58;1.45;;;0.82;;
11711;SDS011;5912;51.034;6.984;2023-09-18T12:01:24;4.20;;;0.90;;
11711;SDS011;5912;51.034;6.984;2023-09-18T12:03:54;2.22;;;0.90;;
11711;SDS011;5912;51.034;6.984;2023-09-18T12:06:24;1.55;;;1.00;;
11711;SDS011;5912;51.034;6.984;2023-09-18T12:08:51;3.03;;;0.90;;
11711;SDS011;5912;51.034;6.984;2023-09-18T12:11:17;1.38;;;0.80;;
11711;SDS011;5912;51.034;6.984;2023-09-18T12:13:44;1.88;;;1.10;;
11711;SDS011;5912;51.034;6.984;2023-09-18T12:16:11;3.75;;;1.10;;
11711;SDS011;5912;51.034;6.984;2023-09-18T12:18:36;3.13;;;1.10;;
11711;SDS011;5912;51.034;6.984;2023-09-18T12:21:05;2.50;;;1.10;;
11711;SDS011;5912;51.034;6.984;2023-09-18T12:23:41;3.72;;;1.20;;
11711;SDS011;5912;51.034;6.984;2023-09-18T12:26:09;2.97;;;1.10;;
11711;SDS011;5912;51.034;6.984;2023-09-18T12:28:38;5.80;;;1.00;;
11711;SDS011;5912;51.034;6.984;2023-09-18T12:31:04;1.50;;;1.08;;
11711;SDS011;5912;51.034;6.984;2023-09-18T12:33:36;3.35;;;1.08;;
11711;SDS011;5912;51.034;6.984;2023-09-18T12:36:02;3.15;;;1.02;;
11711;SDS011;5912;51.034;6.984;2023-09-18T12:38:29;3.10;;;1.20;;
11711;SDS011;5912;51.034;6.984;2023-09-18T12:40:55;3.80;;;1.85;;
11711;SDS011;5912;51.034;6.984;2023-09-18T12:43:21;1.73;;;0.90;;
11711;SDS011;5912;51.034;6.984;2023-09-18T12:45:48;1.45;;;1.20;;
11711;SDS011;5912;51.034;6.984;2023-09-18T12:48:15;1.85;;;1.10;;
11711;SDS011;5912;51.034;6.984;2023-09-18T12:50:40;1.42;;;1.00;;
11711;SDS011;5912;51.034;6.984;2023-09-18T12:53:15;1.55;;;1.05;;
11711;SDS011;5912;51.034;6.984;2023-09-18T12:55:47;3.03;;;1.05;;
11711;SDS011;5912;51.034;6.984;2023-09-18T12:58:18;1.45;;;1.17;;
11711;SDS011;5912;51.034;6.984;2023-09-18T13:00:45;3.28;;;1.15;;
11711;SDS011;5912;51.034;6.984;2023-09-18T13:03:17;6.13;;;1.17;;
11711;SDS011;5912;51.034;6.984;2023-09-18T13:05:43;2.35;;;1.20;;
11711;SDS011;5912;51.034;6.984;2023-09-18T13:08:09;5.32;;;1.33;;
11711;SDS011;5912;51.034;6.984;2023-09-18T13:10:52;1.42;;;1.10;;
11711;SDS011;5912;51.034;6.984;2023-09-18T13:13:21;1.13;;;0.98;;
11711;SDS011;5912;51.034;6.984;2023-09-18T13:15:48;1.90;;;1.15;;
11711;SDS011;5912;51.034;6.984;2023-09-18T13:18:14;2.38;;;1.15;;
11711;SDS011;5912;51.034;6.984;2023-09-18T13:20:41;4.60;;;1.10;;
11711;SDS011;5912;51.034;6.984;2023-09-18T13:23:06;1.50;;;1.20;;
11711;SDS011;5912;51.034;6.984;2023-09-18T13:25:33;1.55;;;1.10;;
11711;SDS011;5912;51.034;6.984;2023-09-18T13:28:01;5.15;;;1.30;;
11711;SDS011;5912;51.034;6.984;2023-09-18T13:30:28;3.25;;;1.33;;
11711;SDS011;5912;51.034;6.984;2023-09-18T13:33:02;3.22;;;1.25;;
11711;SDS011;5912;51.034;6.984;2023-09-18T13:35:29;2.03;;;1.00;;
11711;SDS011;5912;51.034;6.984;2023-09-18T13:37:54;2.88;;;1.30;;
11711;SDS011;5912;51.034;6.984;2023-09-18T13:40:20;2.42;;;1.10;;
11711;SDS011;5912;51.034;6.984;2023-09-18T13:42:47;1.67;;;1.20;;
11711;SDS011;5912;51.034;6.984;2023-09-18T13:45:14;2.50;;;1.10;;
11711;SDS011;5912;51.034;6.984;2023-09-18T13:47:41;4.43;;;0.95;;
11711;SDS011;5912;51.034;6.984;2023-09-18T13:50:07;3.17;;;1.08;;
11711;SDS011;5912;51.034;6.984;2023-09-18T13:52:33;1.95;;;1.10;;
11711;SDS011;5912;51.034;6.984;2023-09-18T13:55:01;1.70;;;1.30;;
11711;SDS011;5912;51.034;6.984;2023-09-18T13:57:30;3.55;;;1.63;;
11711;SDS011;5912;51.034;6.984;2023-09-18T13:59:59;2.00;;;1.30;;
11711;SDS011;5912;51.034;6.984;2023-09-18T14:02:25;2.47;;;0.82;;
11711;SDS011;5912;51.034;6.984;2023-09-18T14:04:52;1.13;;;0.98;;
11711;SDS011;5912;51.034;6.984;2023-09-18T14:07:20;1.83;;;1.20;;
11711;SDS011;5912;51.034;6.984;2023-09-18T14:09:47;2.88;;;1.00;;
11711;SDS011;5912;51.034;6.984;2023-09-18T14:12:12;1.40;;;0.95;;
11711;SDS011;5912;51.034;6.984;2023-09-18T14:14:37;2.17;;;1.10;;
11711;SDS011;5912;51.034;6.984;2023-09-18T14:17:05;2.85;;;1.30;;
11711;SDS011;5912;51.034;6.984;2023-09-18T14:19:30;2.92;;;1.10;;
11711;SDS011;5912;51.034;6.984;2023-09-18T14:21:56;2.47;;;1.20;;
11711;SDS011;5912;51.034;6.984;2023-09-18T14:24:21;2.55;;;1.10;;
11711;SDS011;5912;51.034;6.984;2023-09-18T14:26:50;1.95;;;1.33;;
11711;SDS011;5912;51.034;6.984;2023-09-18T14:29:16;2.15;;;1.05;;
11711;SDS011;5912;51.034;6.984;2023-09-18T14:31:42;5.45;;;1.45;;
11711;SDS011;5912;51.034;6.984;2023-09-18T14:34:07;1.55;;;1.13;;
11711;SDS011;5912;51.034;6.984;2023-09-18T14:36:33;1.65;;;1.10;;
11711;SDS011;5912;51.034;6.984;2023-09-18T14:38:59;4.22;;;1.02;;
11711;SDS011;5912;51.034;6.984;2023-09-18T14:41:26;4.93;;;1.10;;
11711;SDS011;5912;51.034;6.984;2023-09-18T14:43:51;4.07;;;1.40;;
11711;SDS011;5912;51.034;6.984;2023-09-18T14:46:17;1.73;;;1.20;;
11711;SDS011;5912;51.034;6.984;2023-09-18T14:48:42;2.17;;;1.08;;
11711;SDS011;5912;51.034;6.984;2023-09-18T14:51:08;2.45;;;1.13;;
11711;SDS011;5912;51.034;6.984;2023-09-18T14:53:33;5.03;;;1.45;;
11711;SDS011;5912;51.034;6.984;2023-09-18T14:55:59;3.60;;;1.60;;
11711;SDS011;5912;51.034;6.984;2023-09-18T14:58:25;1.90;;;1.10;;
11711;SDS011;5912;51.034;6.984;2023-09-18T15:00:50;1.90;;;1.20;;
11711;SDS011;5912;51.034;6.984;2023-09-18T15:03:15;2.38;;;1.45;;
11711;SDS011;5912;51.034;6.984;2023-09-18T15:05:41;2.13;;;1.27;;
11711;SDS011;5912;51.034;6.984;2023-09-18T15:08:07;4.88;;;1.02;;
11711;SDS011;5912;51.034;6.984;2023-09-18T15:10:32;2.80;;;1.15;;
11711;SDS011;5912;51.034;6.984;2023-09-18T15:12:58;1.92;;;1.48;;
11711;SDS011;5912;51.034;6.984;2023-09-18T15:15:24;5.13;;;1.35;;
11711;SDS011;5912;51.034;6.984;2023-09-18T15:17:49;2.35;;;1.45;;